Time;durP1;ratioP1;P1;durP2;ratioP2;P2;SDS_P1;SDS_P2;PMS_P1;PMS_P2;Temp;Humidity;BMP_temperature;BMP_pressure;BME280_temperature;BME280_humidity;BME280_pressure;Samples;Min_cycle;Max_cycle;Signal;HPM_P1;HPM_P2
2023/01/27 00:02:14;;;;;;;19.30;12.23;;;3.80;99.90;;;;;;5071898;28;20467;-76
2023/01/27 00:04:40;;;;;;;21.83;13.80;;;3.90;99.90;;;;;;5072630;28;20036;-76
2023/01/27 00:07:06;;;;;;;21.60;12.37;;;3.70;99.90;;;;;;5070205;28;20076;-76
2023/01/27 00:09:31;;;;;;;17.63;10.27;;;3.80;99.90;;;;;;5072299;28;20048;-76
2023/01/27 00:14:41;;;;;;;21.17;11.97;;;3.80;99.90;;;;;;5072311;28;20541;-76
2023/01/27 00:17:07;;;;;;;17.33;11.17;;;3.70;99.90;;;;;;5071684;28;20076;-76
2023/01/27 00:19:32;;;;;;;15.83;10.70;;;3.70;99.90;;;;;;5071443;28;20052;-76
2023/01/27 00:24:42;;;;;;;14.47;10.53;;;3.70;99.90;;;;;;5068744;28;20130;-76
2023/01/27 00:27:08;;;;;;;19.03;10.90;;;3.60;99.90;;;;;;5051342;28;20464;-75
2023/01/27 00:29:38;;;;;;;17.03;10.77;;;3.70;99.90;;;;;;5051619;28;20122;-76
2023/01/27 00:34:48;;;;;;;19.03;10.40;;;3.70;99.90;;;;;;5063347;28;20160;-77
2023/01/27 00:37:14;;;;;;;16.93;10.57;;;3.70;99.90;;;;;;5070686;28;20443;-76
2023/01/27 00:39:40;;;;;;;18.43;9.90;;;3.70;99.90;;;;;;5070845;28;20064;-76
2023/01/27 00:42:06;;;;;;;14.33;9.93;;;3.70;99.90;;;;;;5071150;28;20162;-76
2023/01/27 00:44:32;;;;;;;16.00;9.53;;;3.60;99.90;;;;;;5072062;28;20186;-76
2023/01/27 00:46:57;;;;;;;17.37;10.10;;;3.60;99.90;;;;;;5069195;28;20182;-76
2023/01/27 00:49:23;;;;;;;15.70;9.33;;;3.60;99.90;;;;;;5071445;28;20045;-76
2023/01/27 00:51:50;;;;;;;13.97;9.00;;;3.60;99.90;;;;;;5071436;28;20055;-76
2023/01/27 00:54:16;;;;;;;16.33;9.30;;;3.70;99.90;;;;;;5071083;28;20036;-76
2023/01/27 00:56:41;;;;;;;11.93;9.07;;;3.70;99.90;;;;;;5070924;28;20047;-76
2023/01/27 00:59:07;;;;;;;16.57;9.27;;;3.70;99.90;;;;;;5070299;28;20044;-76
2023/01/27 01:01:33;;;;;;;15.37;9.67;;;3.60;99.90;;;;;;5071122;28;20044;-76
2023/01/27 01:04:00;;;;;;;16.20;9.47;;;3.60;99.90;;;;;;5070824;28;20131;-76
2023/01/27 01:06:26;;;;;;;16.30;9.33;;;3.60;99.90;;;;;;5070514;28;20052;-76
2023/01/27 01:08:55;;;;;;;17.77;9.00;;;3.60;99.90;;;;;;5069498;28;20074;-77
2023/01/27 01:11:21;;;;;;;13.23;8.23;;;3.80;99.90;;;;;;5069348;28;20049;-78
2023/01/27 01:13:47;;;;;;;11.90;8.20;;;3.60;99.90;;;;;;5070016;28;20127;-76
2023/01/27 01:16:18;;;;;;;11.43;8.10;;;3.70;99.90;;;;;;5070414;28;20052;-78
2023/01/27 01:18:44;;;;;;;15.83;8.80;;;3.60;99.90;;;;;;5069697;28;20053;-76
2023/01/27 01:21:10;;;;;;;12.77;8.63;;;3.50;99.90;;;;;;5070407;28;20052;-76
2023/01/27 01:23:43;;;;;;;17.27;9.33;;;3.50;99.90;;;;;;5070084;28;20048;-77
2023/01/27 01:26:11;;;;;;;16.77;9.17;;;3.60;99.90;;;;;;5053989;28;20484;-76
2023/01/27 01:28:37;;;;;;;20.40;9.47;;;3.60;99.90;;;;;;5049409;28;20127;-76
2023/01/27 01:31:08;;;;;;;19.07;9.70;;;3.60;99.90;;;;;;5050038;28;20502;-76
2023/01/27 01:33:33;;;;;;;16.80;9.57;;;3.60;99.90;;;;;;5052116;28;20072;-76
2023/01/27 01:36:10;;;;;;;15.30;9.17;;;3.60;99.90;;;;;;5070130;28;20389;-76
2023/01/27 01:38:36;;;;;;;15.43;8.63;;;3.60;99.90;;;;;;5070370;28;20520;-76
2023/01/27 01:41:04;;;;;;;12.67;8.90;;;3.50;99.90;;;;;;5070248;28;20045;-76
2023/01/27 01:43:29;;;;;;;13.53;7.57;;;3.50;99.90;;;;;;5069146;28;20072;-76
2023/01/27 01:45:59;;;;;;;16.63;9.53;;;3.60;99.90;;;;;;5070484;28;20507;-75
2023/01/27 01:48:48;;;;;;;18.13;9.03;;;3.60;99.90;;;;;;5068029;28;20048;-76
2023/01/27 01:51:19;;;;;;;18.87;8.60;;;3.50;99.90;;;;;;5069156;28;20052;-76
2023/01/27 01:54:10;;;;;;;12.83;8.40;;;3.60;99.90;;;;;;5069903;28;20052;-76
2023/01/27 01:56:41;;;;;;;11.83;5.40;;;3.60;99.90;;;;;;5062155;28;20143;-76
2023/01/27 01:59:14;;;;;;;14.10;8.00;;;3.60;99.90;;;;;;5069752;28;20287;-76
2023/01/27 02:01:40;;;;;;;15.80;8.40;;;3.70;99.90;;;;;;5069898;28;20486;-76
2023/01/27 02:04:12;;;;;;;13.40;7.63;;;3.60;99.90;;;;;;5069607;28;20079;-76
2023/01/27 02:06:47;;;;;;;14.13;6.20;;;4.00;99.90;;;;;;5069194;28;20375;-78
2023/01/27 02:09:13;;;;;;;18.40;6.40;;;3.60;99.90;;;;;;5068912;28;20067;-76
2023/01/27 02:11:39;;;;;;;12.40;5.63;;;3.60;99.90;;;;;;5069760;28;20446;-76
2023/01/27 02:14:05;;;;;;;11.83;4.83;;;3.60;99.90;;;;;;5068404;28;20037;-76
2023/01/27 02:16:31;;;;;;;12.17;5.57;;;3.60;99.90;;;;;;5069238;28;20486;-77
2023/01/27 02:18:57;;;;;;;11.37;4.67;;;3.60;99.90;;;;;;5068902;28;20053;-77
2023/01/27 02:21:22;;;;;;;12.23;4.50;;;3.60;99.90;;;;;;5070029;28;20398;-77
2023/01/27 02:23:59;;;;;;;11.50;5.03;;;3.60;99.90;;;;;;5050496;28;20071;-76
2023/01/27 02:26:37;;;;;;;6.40;3.87;;;3.60;99.90;;;;;;5051308;28;20073;-76
2023/01/27 02:29:08;;;;;;;10.50;3.90;;;3.60;99.90;;;;;;5047857;28;20049;-76
2023/01/27 02:31:34;;;;;;;9.10;4.20;;;3.50;99.90;;;;;;5049147;28;20052;-76
2023/01/27 02:34:23;;;;;;;7.90;3.50;;;3.60;99.90;;;;;;5054351;28;20048;-76
2023/01/27 02:36:53;;;;;;;5.23;3.20;;;3.60;99.90;;;;;;5068665;28;20049;-76
2023/01/27 02:39:22;;;;;;;7.07;2.60;;;3.60;99.90;;;;;;5069363;28;20494;-76
2023/01/27 02:41:56;;;;;;;9.30;2.80;;;3.60;99.90;;;;;;5069311;28;20040;-76
2023/01/27 02:44:22;;;;;;;9.73;3.20;;;3.60;99.90;;;;;;5069332;28;20040;-76
2023/01/27 02:46:47;;;;;;;8.63;2.23;;;3.70;99.90;;;;;;5069398;28;20040;-76
2023/01/27 02:49:13;;;;;;;8.07;2.90;;;3.70;99.90;;;;;;5051331;28;20048;-77
2023/01/27 02:51:39;;;;;;;7.70;2.50;;;3.60;99.90;;;;;;5069325;28;20044;-78
2023/01/27 02:54:05;;;;;;;4.90;2.40;;;3.70;99.90;;;;;;5068501;28;20057;-76
2023/01/27 02:56:31;;;;;;;6.67;2.37;;;3.60;99.90;;;;;;5069076;28;20045;-76
2023/01/27 02:58:57;;;;;;;5.17;2.40;;;3.70;99.90;;;;;;5069213;28;20437;-77
2023/01/27 03:01:24;;;;;;;4.80;2.23;;;3.60;99.90;;;;;;5068926;28;20074;-76
2023/01/27 03:03:50;;;;;;;5.03;2.43;;;3.70;99.90;;;;;;5069283;28;20052;-76
2023/01/27 03:06:17;;;;;;;4.43;1.87;;;3.90;99.90;;;;;;5068181;28;20068;-76
2023/01/27 03:08:43;;;;;;;5.40;1.87;;;3.70;99.90;;;;;;5068639;28;20052;-76
2023/01/27 03:11:10;;;;;;;5.73;2.30;;;3.70;99.90;;;;;;5068995;28;20053;-76
2023/01/27 03:13:36;;;;;;;3.93;1.60;;;3.60;99.90;;;;;;5068328;28;20049;-76
2023/01/27 03:18:48;;;;;;;4.30;1.90;;;3.70;99.90;;;;;;5068363;28;20079;-76
2023/01/27 03:21:16;;;;;;;6.30;2.17;;;3.70;99.90;;;;;;5067807;28;20053;-76
2023/01/27 03:23:44;;;;;;;6.27;2.03;;;3.60;99.90;;;;;;5068695;28;20151;-76
2023/01/27 03:26:11;;;;;;;3.37;1.97;;;3.60;99.90;;;;;;5052737;28;20148;-76
2023/01/27 03:28:37;;;;;;;10.07;2.70;;;3.70;99.90;;;;;;5047590;28;20045;-77
2023/01/27 03:31:18;;;;;;;8.90;2.60;;;3.50;99.90;;;;;;5048327;28;20052;-76
2023/01/27 03:33:46;;;;;;;7.97;2.08;;;3.60;99.90;;;;;;5048705;28;20197;-77
2023/01/27 03:47:10;;;;;;;7.87;1.77;;;3.40;99.90;;;;;;5059889;28;20051;-76
2023/01/27 03:49:35;;;;;;;5.03;2.07;;;3.40;99.90;;;;;;5072757;28;20048;-76
2023/01/27 03:52:01;;;;;;;5.13;2.00;;;3.30;99.90;;;;;;5072175;28;20052;-76
2023/01/27 03:54:27;;;;;;;8.33;1.93;;;3.30;99.90;;;;;;5072468;28;20513;-76
2023/01/27 03:56:52;;;;;;;5.53;2.00;;;3.30;99.90;;;;;;5071048;28;20094;-76
2023/01/27 03:59:18;;;;;;;3.33;1.67;;;3.30;99.90;;;;;;5072409;28;20049;-77
2023/01/27 04:01:44;;;;;;;3.80;1.77;;;3.30;99.90;;;;;;5071599;28;20044;-76
2023/01/27 04:06:55;;;;;;;3.50;1.43;;;3.20;99.90;;;;;;5071764;28;20117;-76
2023/01/27 04:09:23;;;;;;;3.50;1.90;;;3.20;99.90;;;;;;5054299;28;20045;-75
2023/01/27 04:11:56;;;;;;;4.83;2.03;;;3.20;99.90;;;;;;5070656;28;20044;-75
2023/01/27 04:14:34;;;;;;;6.57;1.80;;;3.20;99.90;;;;;;5070292;28;20089;-76
2023/01/27 04:17:05;;;;;;;6.77;1.60;;;3.20;99.90;;;;;;5072077;28;20044;-76
2023/01/27 04:19:31;;;;;;;8.30;1.38;;;3.20;99.90;;;;;;5073353;28;20044;-77
2023/01/27 04:21:59;;;;;;;4.53;2.07;;;3.20;99.90;;;;;;5072347;28;20041;-76
2023/01/27 04:24:25;;;;;;;8.13;2.13;;;3.10;99.90;;;;;;5071263;28;20051;-76
2023/01/27 04:26:54;;;;;;;4.53;1.83;;;3.10;99.90;;;;;;5051427;28;20044;-77
2023/01/27 04:29:22;;;;;;;6.03;2.20;;;3.10;99.90;;;;;;5051578;28;20068;-76
2023/01/27 04:31:48;;;;;;;6.83;2.07;;;3.30;99.90;;;;;;5049893;28;20056;-78
2023/01/27 04:34:14;;;;;;;10.77;2.17;;;3.10;99.90;;;;;;5058123;28;20050;-76
2023/01/27 04:36:40;;;;;;;5.23;1.77;;;3.20;99.90;;;;;;5071401;28;20056;-76
2023/01/27 04:39:07;;;;;;;7.13;2.07;;;3.10;99.90;;;;;;5072791;28;20086;-76
2023/01/27 04:41:33;;;;;;;6.67;2.03;;;3.10;99.90;;;;;;5071504;28;20044;-76
2023/01/27 04:43:58;;;;;;;6.67;2.00;;;3.30;99.90;;;;;;5071310;28;20185;-76
2023/01/27 04:46:24;;;;;;;6.87;1.67;;;3.20;99.90;;;;;;5069931;28;20049;-76
2023/01/27 04:48:50;;;;;;;6.20;1.87;;;3.10;99.90;;;;;;5071078;28;20081;-78
2023/01/27 04:51:16;;;;;;;8.07;2.50;;;3.10;99.90;;;;;;5071340;28;20527;-76
2023/01/27 04:53:42;;;;;;;7.47;2.60;;;3.50;99.90;;;;;;5071486;28;20500;-76
2023/01/27 04:56:26;;;;;;;8.07;2.77;;;3.10;99.90;;;;;;5070670;28;20059;-77
2023/01/27 04:58:52;;;;;;;6.70;1.87;;;3.00;99.90;;;;;;5070759;28;20521;-76
2023/01/27 05:01:17;;;;;;;6.23;2.30;;;3.10;99.90;;;;;;5071254;28;20063;-76
2023/01/27 05:03:43;;;;;;;4.30;2.20;;;3.10;99.90;;;;;;5071240;28;20190;-76
2023/01/27 05:06:10;;;;;;;4.53;2.23;;;3.30;99.90;;;;;;5069218;28;20056;-76
2023/01/27 05:08:36;;;;;;;3.47;1.90;;;3.20;99.90;;;;;;5070590;28;20052;-76
2023/01/27 05:11:01;;;;;;;7.63;2.17;;;3.30;99.90;;;;;;5070339;28;20486;-77
2023/01/27 05:13:27;;;;;;;7.20;2.10;;;3.20;99.90;;;;;;5066457;28;20070;-76
2023/01/27 05:16:22;;;;;;;5.43;2.10;;;3.10;99.90;;;;;;5065558;28;20483;-76
2023/01/27 05:18:50;;;;;;;6.40;2.00;;;3.10;99.90;;;;;;5064111;28;20101;-77
2023/01/27 05:21:21;;;;;;;7.20;2.20;;;3.20;99.90;;;;;;5065951;28;20457;-76
2023/01/27 05:23:47;;;;;;;;;;;3.30;99.90;;;;;;5068354;28;20409;-76
2023/01/27 05:26:16;;;;;;;4.97;1.73;;;3.10;99.90;;;;;;5054282;28;19925;-77
2023/01/27 05:28:44;;;;;;;5.43;2.17;;;3.20;99.90;;;;;;5065625;28;20052;-76
2023/01/27 05:31:26;;;;;;;4.07;2.40;;;3.30;99.90;;;;;;5069262;28;20122;-76
2023/01/27 05:33:53;;;;;;;7.13;2.72;;;3.20;99.90;;;;;;5064352;28;20137;-76
2023/01/27 05:36:20;;;;;;;5.00;2.50;;;3.10;99.90;;;;;;5066735;28;20052;-76
2023/01/27 05:38:46;;;;;;;7.13;2.50;;;3.10;99.90;;;;;;5066713;28;20052;-76
2023/01/27 05:41:13;;;;;;;4.00;2.30;;;3.10;99.90;;;;;;5066647;28;20063;-76
2023/01/27 05:43:41;;;;;;;6.53;2.73;;;3.00;99.90;;;;;;5065571;28;20051;-77
2023/01/27 05:46:07;;;;;;;4.83;2.20;;;3.00;99.90;;;;;;5067645;28;20048;-76
2023/01/27 05:48:34;;;;;;;7.80;2.33;;;3.10;99.90;;;;;;5067994;28;20056;-76
2023/01/27 05:51:00;;;;;;;5.07;2.70;;;3.00;99.90;;;;;;5068996;28;20052;-76
2023/01/27 05:53:26;;;;;;;7.03;2.33;;;3.10;99.90;;;;;;5070012;28;20048;-76
2023/01/27 05:55:52;;;;;;;3.50;2.33;;;3.10;99.90;;;;;;5070265;28;20044;-76
2023/01/27 05:58:18;;;;;;;11.87;2.50;;;3.10;99.90;;;;;;5068492;28;20459;-76
2023/01/27 06:00:44;;;;;;;6.13;2.37;;;3.10;99.90;;;;;;5069673;28;20037;-77
2023/01/27 06:03:10;;;;;;;7.37;2.60;;;3.10;99.90;;;;;;5068177;28;20097;-76
2023/01/27 06:05:36;;;;;;;4.80;2.77;;;3.30;99.90;;;;;;5070479;28;20044;-76
2023/01/27 06:08:01;;;;;;;8.47;2.60;;;3.10;99.90;;;;;;5069126;28;20045;-77
2023/01/27 06:10:27;;;;;;;9.87;3.50;;;3.20;99.90;;;;;;5069410;28;20075;-76
2023/01/27 06:12:53;;;;;;;4.33;2.70;;;3.00;99.90;;;;;;5068701;28;20307;-76
2023/01/27 06:15:18;;;;;;;7.33;2.27;;;3.00;99.90;;;;;;5070226;28;20045;-76
2023/01/27 06:17:44;;;;;;;5.53;1.80;;;3.20;99.90;;;;;;5068529;28;20052;-76
2023/01/27 06:20:10;;;;;;;5.80;2.20;;;3.10;99.90;;;;;;5070638;28;20052;-76
2023/01/27 06:22:36;;;;;;;4.20;2.40;;;3.10;99.90;;;;;;5068912;28;20054;-76
2023/01/27 06:25:01;;;;;;;4.73;3.20;;;3.10;99.90;;;;;;5057811;28;20064;-76
2023/01/27 06:27:27;;;;;;;5.73;2.53;;;3.10;99.90;;;;;;5068972;28;20045;-76
2023/01/27 06:29:53;;;;;;;4.00;1.80;;;3.20;99.90;;;;;;5068049;28;20070;-77
2023/01/27 06:32:18;;;;;;;5.23;1.60;;;3.10;99.90;;;;;;5068823;28;20051;-76
2023/01/27 06:34:44;;;;;;;7.70;2.30;;;3.10;99.90;;;;;;5069528;28;20067;-76
2023/01/27 06:37:09;;;;;;;6.70;2.47;;;3.00;99.90;;;;;;5068751;28;20494;-76
2023/01/27 06:39:38;;;;;;;5.80;2.20;;;3.00;99.90;;;;;;5069911;28;20131;-76
2023/01/27 06:42:06;;;;;;;4.50;2.30;;;2.90;99.90;;;;;;5069253;28;20139;-76
2023/01/27 06:44:32;;;;;;;5.40;1.60;;;2.90;99.90;;;;;;5067875;28;20447;-75
2023/01/27 06:46:57;;;;;;;2.90;1.87;;;2.80;99.90;;;;;;5067341;28;20120;-76
2023/01/27 06:49:23;;;;;;;4.13;2.23;;;2.80;99.90;;;;;;5068666;28;20079;-76
2023/01/27 06:51:48;;;;;;;10.57;2.40;;;2.80;99.90;;;;;;5072756;28;20060;-76
2023/01/27 06:54:15;;;;;;;5.00;2.07;;;2.70;99.90;;;;;;5067443;28;20044;-76
2023/01/27 06:56:40;;;;;;;5.47;2.07;;;2.70;99.90;;;;;;5068294;28;20159;-76
2023/01/27 06:59:06;;;;;;;3.80;2.20;;;2.80;99.90;;;;;;5068994;28;20060;-76
2023/01/27 07:01:31;;;;;;;4.77;2.27;;;2.70;99.90;;;;;;5068936;28;20048;-77
2023/01/27 07:03:57;;;;;;;4.80;2.17;;;2.70;99.90;;;;;;5068704;28;20052;-77
2023/01/27 07:06:23;;;;;;;4.77;2.10;;;2.70;99.90;;;;;;5069382;28;20049;-77
2023/01/27 07:08:49;;;;;;;6.07;2.00;;;2.60;99.90;;;;;;5067942;28;20048;-77
2023/01/27 07:11:15;;;;;;;6.17;2.10;;;2.60;99.90;;;;;;5070438;28;20107;-76
2023/01/27 07:13:42;;;;;;;5.40;2.00;;;2.70;99.90;;;;;;5069497;28;20088;-78
2023/01/27 07:16:08;;;;;;;8.17;2.10;;;2.70;99.90;;;;;;5069983;28;20114;-76
2023/01/27 07:18:33;;;;;;;7.13;1.80;;;2.70;99.90;;;;;;5070046;28;20585;-77
2023/01/27 07:20:59;;;;;;;4.13;1.60;;;2.80;99.90;;;;;;5070382;28;20090;-77
2023/01/27 07:23:25;;;;;;;6.37;2.00;;;2.90;99.90;;;;;;5071191;28;20049;-76
2023/01/27 07:25:50;;;;;;;5.63;1.70;;;2.70;99.90;;;;;;5060656;28;20424;-77
2023/01/27 07:28:16;;;;;;;5.30;2.23;;;2.70;99.90;;;;;;5051901;28;20057;-77
2023/01/27 07:30:42;;;;;;;5.83;2.40;;;2.80;99.90;;;;;;5051727;28;20048;-77
2023/01/27 07:33:10;;;;;;;6.10;1.97;;;2.70;99.90;;;;;;5052452;28;20079;-77
2023/01/27 07:35:37;;;;;;;4.83;2.00;;;2.70;99.90;;;;;;5071043;28;20063;-77
2023/01/27 07:38:04;;;;;;;10.03;2.40;;;2.70;99.90;;;;;;5055176;28;20052;-77
2023/01/27 07:40:30;;;;;;;7.67;1.97;;;2.70;99.90;;;;;;5072544;28;20052;-78
2023/01/27 07:42:59;;;;;;;4.10;2.27;;;3.20;99.90;;;;;;5071576;28;20055;-78
2023/01/27 07:45:25;;;;;;;4.73;1.87;;;2.80;99.90;;;;;;5071170;28;20048;-77
2023/01/27 07:47:51;;;;;;;6.50;2.30;;;3.00;99.90;;;;;;5070731;28;20444;-77
2023/01/27 07:50:17;;;;;;;5.27;2.07;;;2.90;99.90;;;;;;5072516;28;20066;-77
2023/01/27 07:52:42;;;;;;;6.37;2.07;;;2.80;99.90;;;;;;5071801;28;20051;-78
2023/01/27 07:55:08;;;;;;;4.67;2.47;;;2.90;99.90;;;;;;5071192;28;20048;-78
2023/01/27 07:57:34;;;;;;;4.27;2.20;;;2.80;99.90;;;;;;5071815;28;20052;-77
2023/01/27 08:00:00;;;;;;;3.93;2.20;;;2.90;99.90;;;;;;5072722;28;20088;-77
2023/01/27 08:02:27;;;;;;;6.60;2.73;;;2.90;99.90;;;;;;5070716;28;20052;-78
2023/01/27 08:04:53;;;;;;;4.37;2.20;;;2.90;99.90;;;;;;5072885;28;20106;-77
2023/01/27 08:07:19;;;;;;;14.80;2.50;;;2.90;99.90;;;;;;5071377;28;20479;-77
2023/01/27 08:09:44;;;;;;;4.33;2.40;;;2.90;99.90;;;;;;5071453;28;20047;-77
2023/01/27 08:12:10;;;;;;;7.43;2.37;;;2.90;99.90;;;;;;5071965;28;20036;-77
2023/01/27 08:14:36;;;;;;;6.57;2.23;;;3.00;99.90;;;;;;5071937;28;20041;-76
2023/01/27 08:17:01;;;;;;;8.70;1.93;;;3.00;99.90;;;;;;5070935;28;20406;-75
2023/01/27 08:19:27;;;;;;;7.60;2.60;;;3.00;99.90;;;;;;5071431;28;20437;-77
2023/01/27 08:21:53;;;;;;;5.47;2.37;;;3.00;99.90;;;;;;5071131;28;20044;-77
2023/01/27 08:24:18;;;;;;;8.27;3.00;;;3.00;99.90;;;;;;5070619;28;20060;-77
2023/01/27 08:26:44;;;;;;;8.20;2.50;;;3.00;99.90;;;;;;5071248;28;20747;-78
2023/01/27 08:29:10;;;;;;;11.53;3.33;;;3.20;99.90;;;;;;5069033;28;20065;-77
2023/01/27 08:31:35;;;;;;;4.40;3.13;;;3.00;99.90;;;;;;5065234;28;20097;-76
2023/01/27 08:34:01;;;;;;;10.13;2.73;;;3.20;99.90;;;;;;5065462;28;20548;-77
2023/01/27 08:36:26;;;;;;;8.47;2.63;;;3.10;99.90;;;;;;5068341;28;20130;-77
2023/01/27 08:38:52;;;;;;;9.50;2.73;;;3.10;99.90;;;;;;5067055;28;20059;-78
2023/01/27 08:41:21;;;;;;;7.53;2.43;;;3.10;99.90;;;;;;5067807;28;20045;-77
2023/01/27 08:43:47;;;;;;;6.70;2.53;;;3.10;99.90;;;;;;5066080;28;20394;-78
2023/01/27 08:46:14;;;;;;;6.97;2.80;;;3.20;99.90;;;;;;5067658;28;20047;-77
2023/01/27 08:48:40;;;;;;;7.60;2.57;;;3.30;99.90;;;;;;5065333;28;20048;-77
2023/01/27 08:51:07;;;;;;;6.80;3.10;;;3.20;99.90;;;;;;5067081;28;20570;-78
2023/01/27 08:53:33;;;;;;;8.97;2.87;;;3.20;99.90;;;;;;5066744;28;20259;-80
2023/01/27 08:56:04;;;;;;;5.53;2.93;;;3.20;99.90;;;;;;5067559;28;20041;-78
2023/01/27 08:58:32;;;;;;;13.80;3.67;;;3.20;99.90;;;;;;5067360;28;20044;-77
2023/01/27 09:01:02;;;;;;;8.43;2.40;;;3.30;99.90;;;;;;5066234;28;20056;-78
2023/01/27 09:03:29;;;;;;;9.07;2.63;;;3.30;99.90;;;;;;5068080;28;20061;-77
2023/01/27 09:05:55;;;;;;;8.80;2.97;;;3.40;99.90;;;;;;5066700;28;20410;-77
2023/01/27 09:08:21;;;;;;;10.43;3.00;;;3.40;99.90;;;;;;5066412;28;20052;-77
2023/01/27 09:10:46;;;;;;;6.90;2.87;;;3.40;99.90;;;;;;5066676;28;20037;-78
2023/01/27 09:13:12;;;;;;;9.87;3.27;;;3.40;99.90;;;;;;5066671;28;20608;-79
2023/01/27 09:15:39;;;;;;;7.70;2.37;;;3.40;99.90;;;;;;5067356;28;20044;-77
2023/01/27 09:18:05;;;;;;;5.97;2.90;;;3.50;99.90;;;;;;5066167;28;20045;-77
2023/01/27 09:20:31;;;;;;;9.57;2.83;;;3.50;99.90;;;;;;5067523;28;20458;-77
2023/01/27 09:22:57;;;;;;;10.10;3.27;;;3.50;99.90;;;;;;5066640;28;20094;-77
2023/01/27 09:25:23;;;;;;;10.03;2.50;;;3.60;99.90;;;;;;5066794;28;20060;-78
2023/01/27 09:27:54;;;;;;;7.07;2.80;;;3.60;99.90;;;;;;5065404;28;20124;-78
2023/01/27 09:30:20;;;;;;;10.55;3.17;;;3.60;99.90;;;;;;5065133;28;20041;-78
2023/01/27 09:32:45;;;;;;;12.43;3.67;;;3.60;99.90;;;;;;5065909;28;20055;-77
2023/01/27 09:35:11;;;;;;;9.50;3.00;;;3.70;99.90;;;;;;5067245;28;20036;-77
2023/01/27 09:37:43;;;;;;;8.00;3.10;;;3.70;99.90;;;;;;5066620;28;20044;-78
2023/01/27 09:40:34;;;;;;;12.10;3.33;;;3.70;99.90;;;;;;5066539;28;20048;-77
2023/01/27 09:43:27;;;;;;;9.32;3.00;;;3.80;99.90;;;;;;5065878;28;20059;-78
2023/01/27 09:46:17;;;;;;;7.80;2.53;;;3.90;99.90;;;;;;5065629;28;20575;-77
2023/01/27 09:48:43;;;;;;;7.83;2.93;;;4.00;99.90;;;;;;5065880;28;20052;-77
2023/01/27 09:51:24;;;;;;;10.27;3.73;;;4.10;99.90;;;;;;5065689;28;20055;-77
2023/01/27 09:54:17;;;;;;;11.43;3.13;;;4.10;99.90;;;;;;5065994;28;20079;-77
2023/01/27 09:57:21;;;;;;;7.20;2.60;;;4.20;99.90;;;;;;5063164;28;20106;-77
2023/01/27 09:59:54;;;;;;;6.67;2.63;;;4.20;99.90;;;;;;5064852;28;20079;-79
2023/01/27 10:02:41;;;;;;;8.47;2.90;;;4.20;99.90;;;;;;5065777;28;20170;-77
2023/01/27 10:05:43;;;;;;;8.80;3.77;;;4.10;99.90;;;;;;5065561;28;20127;-77
2023/01/27 10:08:33;;;;;;;5.90;2.83;;;4.10;99.90;;;;;;5064173;28;20150;-78
2023/01/27 10:11:23;;;;;;;5.43;2.10;;;4.10;99.90;;;;;;5064853;28;20071;-78
2023/01/27 10:14:24;;;;;;;8.90;2.93;;;4.10;99.90;;;;;;5063742;28;20072;-79
2023/01/27 10:17:13;;;;;;;6.15;2.70;;;4.10;99.90;;;;;;5064429;28;20508;-77
2023/01/27 10:19:57;;;;;;;5.30;2.20;;;4.10;99.90;;;;;;5064868;28;20055;-77
2023/01/27 10:22:34;;;;;;;4.50;2.77;;;4.10;99.90;;;;;;5065862;28;20060;-78
2023/01/27 10:25:11;;;;;;;6.47;2.97;;;4.20;99.90;;;;;;5066023;28;20064;-77
2023/01/27 10:27:44;;;;;;;4.93;3.07;;;4.40;99.90;;;;;;5065123;28;20093;-77
2023/01/27 10:30:25;;;;;;;9.77;2.90;;;4.50;99.90;;;;;;5065771;28;20805;-79
2023/01/27 10:33:20;;;;;;;5.28;2.50;;;4.50;99.90;;;;;;5053814;28;20781;-78
2023/01/27 10:36:06;;;;;;;3.37;2.10;;;4.50;99.90;;;;;;5064185;28;20101;-77
2023/01/27 10:38:41;;;;;;;4.63;2.07;;;4.50;99.90;;;;;;5066241;28;20059;-77
2023/01/27 10:41:31;;;;;;;2.30;2.07;;;4.50;99.90;;;;;;5065255;28;20052;-78
2023/01/27 10:44:28;;;;;;;2.10;1.00;;;4.80;99.90;;;;;;5065086;28;20133;-78
2023/01/27 10:46:56;;;;;;;2.13;2.00;;;5.00;99.90;;;;;;5064791;28;20056;-78
2023/01/27 10:49:34;;;;;;;1.57;1.23;;;5.00;99.90;;;;;;5064115;28;20057;-78
2023/01/27 10:52:09;;;;;;;2.10;1.63;;;4.90;99.90;;;;;;5064138;28;20056;-77
2023/01/27 10:54:56;;;;;;;2.67;1.73;;;4.70;99.90;;;;;;5062696;28;20123;-78
2023/01/27 10:57:59;;;;;;;2.07;1.60;;;4.70;99.90;;;;;;5064044;28;20079;-77
2023/01/27 11:00:33;;;;;;;2.10;1.73;;;4.70;99.90;;;;;;5049810;28;20052;-78
2023/01/27 11:03:11;;;;;;;2.60;1.40;;;4.70;99.90;;;;;;5064933;28;20430;-78
2023/01/27 11:05:41;;;;;;;1.93;1.40;;;4.60;99.90;;;;;;5065466;28;20530;-78
2023/01/27 11:08:16;;;;;;;2.60;1.53;;;4.50;99.90;;;;;;5064377;28;20052;-78
2023/01/27 11:13:33;;;;;;;1.20;1.20;;;4.30;99.90;;;;;;5055409;28;20095;-77
2023/01/27 11:16:00;;;;;;;4.07;2.00;;;4.30;99.90;;;;;;5065410;28;20041;-79
2023/01/27 11:18:34;;;;;;;3.63;3.43;;;4.20;99.90;;;;;;5065952;28;20131;-78
2023/01/27 11:21:05;;;;;;;5.13;4.40;;;4.10;99.90;;;;;;5065590;28;20110;-77
2023/01/27 11:23:47;;;;;;;;;;;4.00;99.90;;;;;;5065937;28;20044;-77
2023/01/27 11:26:32;;;;;;;;;;;3.90;99.90;;;;;;5060651;28;20039;-78
2023/01/27 11:29:20;;;;;;;5.00;3.30;;;3.90;99.90;;;;;;5065984;28;19991;-78
2023/01/27 11:31:55;;;;;;;4.00;3.13;;;3.90;99.90;;;;;;5065038;28;20045;-78
2023/01/27 11:34:31;;;;;;;4.63;3.33;;;3.80;99.90;;;;;;5051525;28;20442;-78
2023/01/27 11:36:57;;;;;;;6.93;3.70;;;3.90;99.90;;;;;;5065153;28;20548;-77
2023/01/27 11:39:24;;;;;;;4.73;3.13;;;3.80;99.90;;;;;;5065051;28;20044;-78
2023/01/27 11:41:53;;;;;;;4.33;3.93;;;3.80;99.90;;;;;;5063762;28;20498;-77
2023/01/27 11:44:23;;;;;;;4.83;4.43;;;3.90;99.90;;;;;;5063258;28;20067;-78
2023/01/27 11:46:51;;;;;;;5.97;4.47;;;3.70;99.90;;;;;;5064589;28;20406;-77
2023/01/27 11:49:39;;;;;;;5.00;4.60;;;3.70;99.90;;;;;;5046525;28;20041;-77
2023/01/27 11:52:18;;;;;;;5.50;4.50;;;3.70;99.90;;;;;;5046186;28;20048;-78
2023/01/27 11:54:47;;;;;;;4.70;3.93;;;3.60;99.90;;;;;;5063422;28;20053;-78
2023/01/27 11:57:22;;;;;;;5.27;3.87;;;3.60;99.90;;;;;;5065406;28;20045;-77
2023/01/27 11:59:52;;;;;;;5.07;4.40;;;3.60;99.90;;;;;;5067533;28;20474;-78
2023/01/27 12:02:31;;;;;;;6.23;5.00;;;3.60;99.90;;;;;;5067780;28;20052;-77
2023/01/27 12:05:11;;;;;;;5.60;4.90;;;3.50;99.90;;;;;;5067764;28;20273;-78
2023/01/27 12:07:52;;;;;;;5.63;4.07;;;3.50;99.90;;;;;;5067542;28;20049;-76
2023/01/27 12:10:28;;;;;;;3.35;2.97;;;3.50;99.90;;;;;;5068662;28;20052;-77
2023/01/27 12:12:56;;;;;;;5.07;4.53;;;3.50;99.90;;;;;;5068363;28;20056;-76
2023/01/27 12:15:25;;;;;;;5.30;4.80;;;3.40;99.90;;;;;;5068643;28;20044;-77
2023/01/27 12:17:55;;;;;;;5.53;4.57;;;3.60;99.90;;;;;;5067660;28;20296;-77
2023/01/27 12:20:24;;;;;;;5.22;4.78;;;3.50;99.90;;;;;;5068532;28;20063;-77
2023/01/27 12:22:53;;;;;;;6.77;5.10;;;3.50;99.90;;;;;;5067214;28;20060;-77
2023/01/27 12:25:29;;;;;;;5.87;5.37;;;3.50;99.90;;;;;;5068474;28;20124;-77
2023/01/27 12:28:03;;;;;;;6.17;4.87;;;3.50;99.90;;;;;;5049837;28;20052;-77
2023/01/27 12:30:33;;;;;;;6.00;5.40;;;3.50;99.90;;;;;;5068449;28;20076;-78
2023/01/27 12:33:09;;;;;;;7.23;5.70;;;3.60;99.90;;;;;;5068385;28;20324;-77
2023/01/27 12:35:36;;;;;;;6.17;5.57;;;3.50;99.90;;;;;;5060868;28;20048;-78
2023/01/27 12:38:21;;;;;;;6.50;5.80;;;3.50;99.90;;;;;;5067384;28;20389;-79
2023/01/27 12:40:56;;;;;;;6.93;6.23;;;3.50;99.90;;;;;;5070084;28;20055;-79
2023/01/27 12:43:23;;;;;;;8.17;6.80;;;3.50;99.90;;;;;;5066843;28;20055;-77
2023/01/27 12:46:07;;;;;;;7.23;6.03;;;3.50;99.90;;;;;;5066626;28;20048;-77
2023/01/27 12:48:35;;;;;;;7.33;4.67;;;3.50;99.90;;;;;;5066491;28;20486;-77
2023/01/27 12:51:12;;;;;;;5.00;4.30;;;3.50;99.90;;;;;;5067578;28;20052;-77
2023/01/27 12:53:38;;;;;;;4.27;3.90;;;3.60;99.90;;;;;;5065689;28;20109;-77
2023/01/27 12:56:22;;;;;;;5.73;4.07;;;3.50;99.90;;;;;;5068052;28;20128;-77
2023/01/27 12:58:56;;;;;;;4.53;4.07;;;3.50;99.90;;;;;;5068730;28;20044;-78
2023/01/27 13:01:36;;;;;;;4.53;4.13;;;3.50;99.90;;;;;;5070391;28;20086;-77
2023/01/27 13:04:15;;;;;;;4.50;4.20;;;3.50;99.90;;;;;;5067236;28;20048;-77
2023/01/27 13:06:54;;;;;;;4.93;4.43;;;3.50;99.90;;;;;;5070129;28;20041;-76
2023/01/27 13:09:26;;;;;;;4.67;4.20;;;3.50;99.90;;;;;;5068902;28;20459;-77
2023/01/27 13:11:53;;;;;;;5.57;4.20;;;3.50;99.90;;;;;;5069847;28;20467;-77
2023/01/27 13:14:19;;;;;;;4.37;4.00;;;3.50;99.90;;;;;;5068461;28;20116;-77
2023/01/27 13:16:57;;;;;;;5.17;4.63;;;3.50;99.90;;;;;;5069417;28;20135;-77
2023/01/27 13:19:39;;;;;;;4.57;4.17;;;3.60;99.90;;;;;;5052214;28;20060;-77
2023/01/27 13:22:08;;;;;;;4.47;4.07;;;3.60;99.90;;;;;;5066104;28;20074;-77
2023/01/27 13:24:38;;;;;;;5.90;4.63;;;3.60;99.90;;;;;;5064531;28;20063;-77
2023/01/27 13:27:10;;;;;;;3.75;3.35;;;3.60;99.90;;;;;;5064882;28;20426;-78
2023/01/27 13:29:38;;;;;;;6.40;5.80;;;3.60;99.90;;;;;;5066770;28;20439;-77
2023/01/27 13:32:10;;;;;;;5.00;4.60;;;3.60;99.90;;;;;;5065049;28;20052;-77
2023/01/27 13:34:52;;;;;;;5.50;4.33;;;3.50;99.90;;;;;;5066887;28;20041;-76
2023/01/27 13:37:27;;;;;;;5.63;4.93;;;3.50;99.90;;;;;;5066088;28;20060;-76
2023/01/27 13:40:11;;;;;;;5.83;4.57;;;3.50;99.90;;;;;;5069110;28;20128;-77